sensor_id;sensor_type;location;lat;lon;timestamp;temperature;humidity
3466;DHT22;1747;48.884;9.160;2023-06-14T00:00:00;16.30;78.30
3466;DHT22;1747;48.884;9.160;2023-06-14T00:02:29;16.30;78.20
3466;DHT22;1747;48.884;9.160;2023-06-14T00:04:56;16.40;77.90
3466;DHT22;1747;48.884;9.160;2023-06-14T00:07:35;16.40;78.00
3466;DHT22;1747;48.884;9.160;2023-06-14T00:10:02;16.40;77.90
3466;DHT22;1747;48.884;9.160;2023-06-14T00:12:30;16.30;77.90
3466;DHT22;1747;48.884;9.160;2023-06-14T00:14:57;16.20;78.90
3466;DHT22;1747;48.884;9.160;2023-06-14T00:17:23;16.10;78.80
3466;DHT22;1747;48.884;9.160;2023-06-14T00:19:55;16.10;78.60
3466;DHT22;1747;48.884;9.160;2023-06-14T00:22:23;16.00;79.00
3466;DHT22;1747;48.884;9.160;2023-06-14T00:24:52;16.00;79.00
3466;DHT22;1747;48.884;9.160;2023-06-14T00:27:18;15.90;79.20
3466;DHT22;1747;48.884;9.160;2023-06-14T00:29:45;15.90;79.70
3466;DHT22;1747;48.884;9.160;2023-06-14T00:32:12;15.80;80.60
3466;DHT22;1747;48.884;9.160;2023-06-14T00:34:39;15.60;81.00
3466;DHT22;1747;48.884;9.160;2023-06-14T00:37:06;15.50;81.40
3466;DHT22;1747;48.884;9.160;2023-06-14T00:39:32;15.50;81.80
3466;DHT22;1747;48.884;9.160;2023-06-14T00:42:00;15.30;82.50
3466;DHT22;1747;48.884;9.160;2023-06-14T00:44:27;15.30;82.50
3466;DHT22;1747;48.884;9.160;2023-06-14T00:46:54;15.30;82.20
3466;DHT22;1747;48.884;9.160;2023-06-14T00:49:21;15.30;82.10
3466;DHT22;1747;48.884;9.160;2023-06-14T00:51:48;15.40;82.50
3466;DHT22;1747;48.884;9.160;2023-06-14T00:54:15;15.30;82.40
3466;DHT22;1747;48.884;9.160;2023-06-14T00:56:42;15.30;82.90
3466;DHT22;1747;48.884;9.160;2023-06-14T00:59:11;15.20;83.00
3466;DHT22;1747;48.884;9.160;2023-06-14T01:01:38;15.20;83.20
3466;DHT22;1747;48.884;9.160;2023-06-14T01:04:05;15.30;83.30
3466;DHT22;1747;48.884;9.160;2023-06-14T01:06:41;15.30;83.40
3466;DHT22;1747;48.884;9.160;2023-06-14T01:09:17;15.20;83.60
3466;DHT22;1747;48.884;9.160;2023-06-14T01:11:50;15.20;83.60
3466;DHT22;1747;48.884;9.160;2023-06-14T01:14:22;15.10;84.60
3466;DHT22;1747;48.884;9.160;2023-06-14T01:16:51;15.00;83.40
3466;DHT22;1747;48.884;9.160;2023-06-14T01:19:19;15.00;81.80
3466;DHT22;1747;48.884;9.160;2023-06-14T01:21:48;15.00;81.80
3466;DHT22;1747;48.884;9.160;2023-06-14T01:24:17;14.90;85.00
3466;DHT22;1747;48.884;9.160;2023-06-14T01:26:49;14.80;85.00
3466;DHT22;1747;48.884;9.160;2023-06-14T01:29:17;14.80;84.80
3466;DHT22;1747;48.884;9.160;2023-06-14T01:31:45;14.80;84.80
3466;DHT22;1747;48.884;9.160;2023-06-14T01:34:13;14.80;86.30
3466;DHT22;1747;48.884;9.160;2023-06-14T01:36:41;14.70;86.40
3466;DHT22;1747;48.884;9.160;2023-06-14T01:39:10;14.70;86.30
3466;DHT22;1747;48.884;9.160;2023-06-14T01:41:40;14.70;86.70
3466;DHT22;1747;48.884;9.160;2023-06-14T01:44:07;14.80;86.80
3466;DHT22;1747;48.884;9.160;2023-06-14T01:46:35;14.80;87.00
3466;DHT22;1747;48.884;9.160;2023-06-14T01:49:02;14.80;87.10
3466;DHT22;1747;48.884;9.160;2023-06-14T01:51:29;14.80;87.10
3466;DHT22;1747;48.884;9.160;2023-06-14T01:53:56;14.70;87.30
3466;DHT22;1747;48.884;9.160;2023-06-14T01:56:23;14.60;87.40
3466;DHT22;1747;48.884;9.160;2023-06-14T01:58:53;14.60;87.50
3466;DHT22;1747;48.884;9.160;2023-06-14T02:01:20;14.60;85.20
3466;DHT22;1747;48.884;9.160;2023-06-14T02:03:47;14.50;85.70
3466;DHT22;1747;48.884;9.160;2023-06-14T02:06:14;14.50;87.00
3466;DHT22;1747;48.884;9.160;2023-06-14T02:08:42;14.50;88.20
3466;DHT22;1747;48.884;9.160;2023-06-14T02:11:09;14.50;88.00
3466;DHT22;1747;48.884;9.160;2023-06-14T02:13:35;14.60;88.40
3466;DHT22;1747;48.884;9.160;2023-06-14T02:16:04;14.60;89.10
3466;DHT22;1747;48.884;9.160;2023-06-14T02:18:30;14.50;90.00
3466;DHT22;1747;48.884;9.160;2023-06-14T02:20:57;14.50;89.60
3466;DHT22;1747;48.884;9.160;2023-06-14T02:23:24;14.40;88.80
3466;DHT22;1747;48.884;9.160;2023-06-14T02:25:51;14.40;90.00
3466;DHT22;1747;48.884;9.160;2023-06-14T02:28:18;14.30;90.20
3466;DHT22;1747;48.884;9.160;2023-06-14T02:30:45;14.20;90.70
3466;DHT22;1747;48.884;9.160;2023-06-14T02:33:13;14.20;90.90
3466;DHT22;1747;48.884;9.160;2023-06-14T02:35:39;14.20;90.90
3466;DHT22;1747;48.884;9.160;2023-06-14T02:38:06;14.20;91.00
3466;DHT22;1747;48.884;9.160;2023-06-14T02:40:33;14.10;91.00
3466;DHT22;1747;48.884;9.160;2023-06-14T02:43:00;14.10;91.30
3466;DHT22;1747;48.884;9.160;2023-06-14T02:45:27;14.00;91.50
3466;DHT22;1747;48.884;9.160;2023-06-14T02:47:54;14.00;91.70
3466;DHT22;1747;48.884;9.160;2023-06-14T02:50:22;14.00;91.70
3466;DHT22;1747;48.884;9.160;2023-06-14T02:52:49;14.00;91.80
3466;DHT22;1747;48.884;9.160;2023-06-14T02:55:16;13.90;92.10
3466;DHT22;1747;48.884;9.160;2023-06-14T02:57:43;13.70;93.10
3466;DHT22;1747;48.884;9.160;2023-06-14T03:00:10;13.70;92.70
3466;DHT22;1747;48.884;9.160;2023-06-14T03:02:38;13.60;92.20
3466;DHT22;1747;48.884;9.160;2023-06-14T03:05:06;13.60;92.20
3466;DHT22;1747;48.884;9.160;2023-06-14T03:07:35;13.60;92.50
3466;DHT22;1747;48.884;9.160;2023-06-14T03:10:07;13.60;93.10
3466;DHT22;1747;48.884;9.160;2023-06-14T03:12:34;13.50;94.00
3466;DHT22;1747;48.884;9.160;2023-06-14T03:15:02;13.40;94.40
3466;DHT22;1747;48.884;9.160;2023-06-14T03:17:29;13.30;95.00
3466;DHT22;1747;48.884;9.160;2023-06-14T03:19:59;13.00;96.00
3466;DHT22;1747;48.884;9.160;2023-06-14T03:22:25;13.00;96.60
3466;DHT22;1747;48.884;9.160;2023-06-14T03:24:53;12.90;96.90
3466;DHT22;1747;48.884;9.160;2023-06-14T03:27:21;13.00;97.30
3466;DHT22;1747;48.884;9.160;2023-06-14T03:29:47;12.90;97.80
3466;DHT22;1747;48.884;9.160;2023-06-14T03:32:14;12.90;98.30
3466;DHT22;1747;48.884;9.160;2023-06-14T03:34:41;12.90;98.70
3466;DHT22;1747;48.884;9.160;2023-06-14T03:37:08;12.90;99.00
3466;DHT22;1747;48.884;9.160;2023-06-14T03:39:35;12.90;99.20
3466;DHT22;1747;48.884;9.160;2023-06-14T03:42:04;13.00;99.20
3466;DHT22;1747;48.884;9.160;2023-06-14T03:44:30;13.00;99.20
3466;DHT22;1747;48.884;9.160;2023-06-14T03:46:57;13.00;99.20
3466;DHT22;1747;48.884;9.160;2023-06-14T03:49:24;13.00;99.40
3466;DHT22;1747;48.884;9.160;2023-06-14T03:51:51;13.00;99.90
3466;DHT22;1747;48.884;9.160;2023-06-14T03:54:18;12.90;99.90
3466;DHT22;1747;48.884;9.160;2023-06-14T03:56:44;12.80;99.90
3466;DHT22;1747;48.884;9.160;2023-06-14T03:59:13;12.80;99.90
3466;DHT22;1747;48.884;9.160;2023-06-14T04:01:40;12.80;99.90
3466;DHT22;1747;48.884;9.160;2023-06-14T04:04:11;12.90;99.90
3466;DHT22;1747;48.884;9.160;2023-06-14T04:06:38;12.90;99.90
3466;DHT22;1747;48.884;9.160;2023-06-14T04:09:06;13.00;99.90
3466;DHT22;1747;48.884;9.160;2023-06-14T04:11:33;13.10;99.90
3466;DHT22;1747;48.884;9.160;2023-06-14T04:14:01;13.20;99.90
3466;DHT22;1747;48.884;9.160;2023-06-14T04:16:29;13.30;99.90
3466;DHT22;1747;48.884;9.160;2023-06-14T04:18:56;13.40;99.90
3466;DHT22;1747;48.884;9.160;2023-06-14T04:21:23;13.50;99.90
3466;DHT22;1747;48.884;9.160;2023-06-14T04:23:53;13.60;99.90
3466;DHT22;1747;48.884;9.160;2023-06-14T04:26:21;13.70;99.90
3466;DHT22;1747;48.884;9.160;2023-06-14T04:28:49;13.80;99.90
3466;DHT22;1747;48.884;9.160;2023-06-14T04:31:16;14.00;99.90
3466;DHT22;1747;48.884;9.160;2023-06-14T04:33:45;14.10;99.90
3466;DHT22;1747;48.884;9.160;2023-06-14T04:36:12;14.20;99.90
3466;DHT22;1747;48.884;9.160;2023-06-14T04:38:39;14.30;99.00
3466;DHT22;1747;48.884;9.160;2023-06-14T04:41:06;14.40;98.00
3466;DHT22;1747;48.884;9.160;2023-06-14T04:43:37;14.50;96.90
3466;DHT22;1747;48.884;9.160;2023-06-14T04:46:04;14.70;97.10
3466;DHT22;1747;48.884;9.160;2023-06-14T04:48:36;14.80;95.80
3466;DHT22;1747;48.884;9.160;2023-06-14T04:51:07;14.90;96.30
3466;DHT22;1747;48.884;9.160;2023-06-14T04:53:34;15.00;96.60
3466;DHT22;1747;48.884;9.160;2023-06-14T04:56:01;15.00;99.60
3466;DHT22;1747;48.884;9.160;2023-06-14T04:58:28;15.00;99.80
3466;DHT22;1747;48.884;9.160;2023-06-14T05:00:55;15.10;99.90
3466;DHT22;1747;48.884;9.160;2023-06-14T05:03:22;15.20;99.90
3466;DHT22;1747;48.884;9.160;2023-06-14T05:05:49;15.30;99.30
3466;DHT22;1747;48.884;9.160;2023-06-14T05:08:20;15.30;99.90
3466;DHT22;1747;48.884;9.160;2023-06-14T05:10:49;15.40;99.90
3466;DHT22;1747;48.884;9.160;2023-06-14T05:13:15;15.50;99.90
3466;DHT22;1747;48.884;9.160;2023-06-14T05:15:42;15.60;99.40
3466;DHT22;1747;48.884;9.160;2023-06-14T05:18:10;15.70;98.80
3466;DHT22;1747;48.884;9.160;2023-06-14T05:20:38;15.80;98.30
3466;DHT22;1747;48.884;9.160;2023-06-14T05:23:07;15.90;98.10
3466;DHT22;1747;48.884;9.160;2023-06-14T05:25:35;16.00;98.00
3466;DHT22;1747;48.884;9.160;2023-06-14T05:28:03;16.10;97.40
3466;DHT22;1747;48.884;9.160;2023-06-14T05:30:30;16.20;97.20
3466;DHT22;1747;48.884;9.160;2023-06-14T05:32:58;16.30;97.10
3466;DHT22;1747;48.884;9.160;2023-06-14T05:35:25;16.50;96.80
3466;DHT22;1747;48.884;9.160;2023-06-14T05:37:53;16.50;96.60
3466;DHT22;1747;48.884;9.160;2023-06-14T05:40:20;16.60;96.60
3466;DHT22;1747;48.884;9.160;2023-06-14T05:42:48;16.70;96.30
3466;DHT22;1747;48.884;9.160;2023-06-14T05:45:16;16.80;96.10
3466;DHT22;1747;48.884;9.160;2023-06-14T05:47:42;16.90;96.00
3466;DHT22;1747;48.884;9.160;2023-06-14T05:50:10;16.90;96.00
3466;DHT22;1747;48.884;9.160;2023-06-14T05:52:36;17.00;95.70
3466;DHT22;1747;48.884;9.160;2023-06-14T05:55:04;17.20;95.40
3466;DHT22;1747;48.884;9.160;2023-06-14T05:57:31;17.20;95.60
3466;DHT22;1747;48.884;9.160;2023-06-14T05:59:59;17.30;95.60
3466;DHT22;1747;48.884;9.160;2023-06-14T06:02:26;17.40;94.50
3466;DHT22;1747;48.884;9.160;2023-06-14T06:04:53;17.60;94.50
3466;DHT22;1747;48.884;9.160;2023-06-14T06:07:20;17.70;94.20
3466;DHT22;1747;48.884;9.160;2023-06-14T06:09:47;17.80;93.80
3466;DHT22;1747;48.884;9.160;2023-06-14T06:12:14;17.80;93.70
3466;DHT22;1747;48.884;9.160;2023-06-14T06:14:41;17.90;93.80
3466;DHT22;1747;48.884;9.160;2023-06-14T06:17:09;18.00;93.80
3466;DHT22;1747;48.884;9.160;2023-06-14T06:19:36;18.10;93.50
3466;DHT22;1747;48.884;9.160;2023-06-14T06:22:04;18.10;93.80
3466;DHT22;1747;48.884;9.160;2023-06-14T06:24:31;18.10;93.60
3466;DHT22;1747;48.884;9.160;2023-06-14T06:26:58;18.20;93.60
3466;DHT22;1747;48.884;9.160;2023-06-14T06:29:25;18.30;93.60
3466;DHT22;1747;48.884;9.160;2023-06-14T06:31:52;18.30;93.60
3466;DHT22;1747;48.884;9.160;2023-06-14T06:34:20;18.40;93.00
3466;DHT22;1747;48.884;9.160;2023-06-14T06:36:47;18.50;93.20
3466;DHT22;1747;48.884;9.160;2023-06-14T06:39:14;18.60;92.60
3466;DHT22;1747;48.884;9.160;2023-06-14T06:41:41;18.70;92.60
3466;DHT22;1747;48.884;9.160;2023-06-14T06:44:08;18.70;92.20
3466;DHT22;1747;48.884;9.160;2023-06-14T06:46:36;18.80;92.10
3466;DHT22;1747;48.884;9.160;2023-06-14T06:49:05;18.90;91.80
3466;DHT22;1747;48.884;9.160;2023-06-14T06:51:35;19.00;91.80
3466;DHT22;1747;48.884;9.160;2023-06-14T06:54:01;19.10;91.70
3466;DHT22;1747;48.884;9.160;2023-06-14T06:56:28;19.10;91.70
3466;DHT22;1747;48.884;9.160;2023-06-14T06:58:57;19.20;91.60
3466;DHT22;1747;48.884;9.160;2023-06-14T07:01:24;19.30;91.20
3466;DHT22;1747;48.884;9.160;2023-06-14T07:03:51;19.40;91.00
3466;DHT22;1747;48.884;9.160;2023-06-14T07:06:18;19.50;90.80
3466;DHT22;1747;48.884;9.160;2023-06-14T07:08:47;19.60;90.60
3466;DHT22;1747;48.884;9.160;2023-06-14T07:11:17;19.70;90.40
3466;DHT22;1747;48.884;9.160;2023-06-14T07:13:44;19.80;90.20
3466;DHT22;1747;48.884;9.160;2023-06-14T07:16:11;19.90;90.00
3466;DHT22;1747;48.884;9.160;2023-06-14T07:18:37;20.00;89.90
3466;DHT22;1747;48.884;9.160;2023-06-14T07:21:04;20.10;89.30
3466;DHT22;1747;48.884;9.160;2023-06-14T07:23:31;20.20;88.50
3466;DHT22;1747;48.884;9.160;2023-06-14T07:25:59;20.30;87.90
3466;DHT22;1747;48.884;9.160;2023-06-14T07:28:26;20.30;88.50
3466;DHT22;1747;48.884;9.160;2023-06-14T07:30:53;20.40;88.00
3466;DHT22;1747;48.884;9.160;2023-06-14T07:33:20;20.40;87.80
3466;DHT22;1747;48.884;9.160;2023-06-14T07:35:47;20.50;87.60
3466;DHT22;1747;48.884;9.160;2023-06-14T07:38:14;20.70;86.60
3466;DHT22;1747;48.884;9.160;2023-06-14T07:40:41;20.60;86.70
3466;DHT22;1747;48.884;9.160;2023-06-14T07:43:09;20.70;86.50
3466;DHT22;1747;48.884;9.160;2023-06-14T07:45:37;20.80;85.60
3466;DHT22;1747;48.884;9.160;2023-06-14T07:48:04;20.90;86.80
3466;DHT22;1747;48.884;9.160;2023-06-14T07:50:32;21.00;86.60
3466;DHT22;1747;48.884;9.160;2023-06-14T07:52:59;21.20;85.60
3466;DHT22;1747;48.884;9.160;2023-06-14T07:55:25;21.20;86.60
3466;DHT22;1747;48.884;9.160;2023-06-14T07:57:53;21.30;86.10
3466;DHT22;1747;48.884;9.160;2023-06-14T08:00:21;21.20;85.60
3466;DHT22;1747;48.884;9.160;2023-06-14T08:02:48;21.30;86.00
3466;DHT22;1747;48.884;9.160;2023-06-14T08:05:16;21.40;85.40
3466;DHT22;1747;48.884;9.160;2023-06-14T08:07:43;21.40;85.50
3466;DHT22;1747;48.884;9.160;2023-06-14T08:10:09;21.60;85.00
3466;DHT22;1747;48.884;9.160;2023-06-14T08:12:37;21.70;84.50
3466;DHT22;1747;48.884;9.160;2023-06-14T08:15:04;21.80;84.20
3466;DHT22;1747;48.884;9.160;2023-06-14T08:17:32;21.80;84.30
3466;DHT22;1747;48.884;9.160;2023-06-14T08:19:59;22.00;83.80
3466;DHT22;1747;48.884;9.160;2023-06-14T08:22:26;22.10;84.10
3466;DHT22;1747;48.884;9.160;2023-06-14T08:24:57;22.10;84.50
3466;DHT22;1747;48.884;9.160;2023-06-14T08:27:24;22.20;84.10
3466;DHT22;1747;48.884;9.160;2023-06-14T08:29:51;22.20;84.10
3466;DHT22;1747;48.884;9.160;2023-06-14T08:32:18;22.30;83.80
3466;DHT22;1747;48.884;9.160;2023-06-14T08:34:47;22.40;83.10
3466;DHT22;1747;48.884;9.160;2023-06-14T08:37:13;22.50;83.10
3466;DHT22;1747;48.884;9.160;2023-06-14T08:39:40;22.60;83.00
3466;DHT22;1747;48.884;9.160;2023-06-14T08:42:09;22.80;83.40
3466;DHT22;1747;48.884;9.160;2023-06-14T08:44:37;22.80;82.30
3466;DHT22;1747;48.884;9.160;2023-06-14T08:47:06;22.80;82.40
3466;DHT22;1747;48.884;9.160;2023-06-14T08:49:36;22.80;81.50
3466;DHT22;1747;48.884;9.160;2023-06-14T08:52:08;22.90;82.00
3466;DHT22;1747;48.884;9.160;2023-06-14T08:54:38;22.90;81.90
3466;DHT22;1747;48.884;9.160;2023-06-14T08:57:10;23.00;82.00
3466;DHT22;1747;48.884;9.160;2023-06-14T08:59:46;23.20;80.80
3466;DHT22;1747;48.884;9.160;2023-06-14T09:02:15;23.20;81.20
3466;DHT22;1747;48.884;9.160;2023-06-14T09:04:43;23.20;83.60
3466;DHT22;1747;48.884;9.160;2023-06-14T09:07:12;23.30;81.90
3466;DHT22;1747;48.884;9.160;2023-06-14T09:09:39;23.40;81.50
3466;DHT22;1747;48.884;9.160;2023-06-14T09:12:08;23.50;82.00
3466;DHT22;1747;48.884;9.160;2023-06-14T09:14:37;23.60;83.40
3466;DHT22;1747;48.884;9.160;2023-06-14T09:17:06;23.70;81.30
3466;DHT22;1747;48.884;9.160;2023-06-14T09:19:34;23.90;80.70
3466;DHT22;1747;48.884;9.160;2023-06-14T09:22:02;23.90;81.40
3466;DHT22;1747;48.884;9.160;2023-06-14T09:24:30;24.00;79.70
3466;DHT22;1747;48.884;9.160;2023-06-14T09:26:57;24.10;78.80
3466;DHT22;1747;48.884;9.160;2023-06-14T09:29:24;24.10;78.60
3466;DHT22;1747;48.884;9.160;2023-06-14T09:31:52;24.00;77.70
3466;DHT22;1747;48.884;9.160;2023-06-14T09:34:19;24.10;77.10
3466;DHT22;1747;48.884;9.160;2023-06-14T09:36:49;24.20;78.70
3466;DHT22;1747;48.884;9.160;2023-06-14T09:39:17;24.10;82.50
3466;DHT22;1747;48.884;9.160;2023-06-14T09:41:45;24.30;81.40
3466;DHT22;1747;48.884;9.160;2023-06-14T09:44:12;24.40;81.10
3466;DHT22;1747;48.884;9.160;2023-06-14T09:46:39;24.60;77.20
3466;DHT22;1747;48.884;9.160;2023-06-14T09:49:06;24.60;76.90
3466;DHT22;1747;48.884;9.160;2023-06-14T09:51:33;24.70;79.60
3466;DHT22;1747;48.884;9.160;2023-06-14T09:54:02;24.80;78.80
3466;DHT22;1747;48.884;9.160;2023-06-14T09:56:32;24.90;77.00
3466;DHT22;1747;48.884;9.160;2023-06-14T09:59:04;25.00;75.60
3466;DHT22;1747;48.884;9.160;2023-06-14T10:01:32;25.00;74.80
3466;DHT22;1747;48.884;9.160;2023-06-14T10:04:03;25.00;73.50
3466;DHT22;1747;48.884;9.160;2023-06-14T10:06:31;25.00;74.10
3466;DHT22;1747;48.884;9.160;2023-06-14T10:08:59;25.00;74.00
3466;DHT22;1747;48.884;9.160;2023-06-14T10:11:27;24.90;72.90
3466;DHT22;1747;48.884;9.160;2023-06-14T10:13:55;24.90;74.00
3466;DHT22;1747;48.884;9.160;2023-06-14T10:16:28;25.00;72.60
3466;DHT22;1747;48.884;9.160;2023-06-14T10:19:04;25.20;72.80
3466;DHT22;1747;48.884;9.160;2023-06-14T10:21:37;25.40;70.60
3466;DHT22;1747;48.884;9.160;2023-06-14T10:24:08;25.60;68.00
3466;DHT22;1747;48.884;9.160;2023-06-14T10:26:50;25.80;68.60
3466;DHT22;1747;48.884;9.160;2023-06-14T10:29:17;25.90;71.10
3466;DHT22;1747;48.884;9.160;2023-06-14T10:31:47;26.10;66.60
3466;DHT22;1747;48.884;9.160;2023-06-14T10:34:22;26.30;65.90
3466;DHT22;1747;48.884;9.160;2023-06-14T10:37:05;26.30;65.00
3466;DHT22;1747;48.884;9.160;2023-06-14T10:39:38;26.30;65.10
3466;DHT22;1747;48.884;9.160;2023-06-14T10:42:06;26.20;64.90
3466;DHT22;1747;48.884;9.160;2023-06-14T10:44:45;26.20;64.20
3466;DHT22;1747;48.884;9.160;2023-06-14T10:47:27;26.20;63.20
3466;DHT22;1747;48.884;9.160;2023-06-14T10:49:56;26.30;63.60
3466;DHT22;1747;48.884;9.160;2023-06-14T10:52:28;26.20;61.80
3466;DHT22;1747;48.884;9.160;2023-06-14T10:55:16;26.00;61.10
3466;DHT22;1747;48.884;9.160;2023-06-14T10:57:49;25.90;63.20
3466;DHT22;1747;48.884;9.160;2023-06-14T11:00:18;26.00;62.80
3466;DHT22;1747;48.884;9.160;2023-06-14T11:05:55;26.40;60.90
3466;DHT22;1747;48.884;9.160;2023-06-14T11:08:48;26.60;60.00
3466;DHT22;1747;48.884;9.160;2023-06-14T11:11:22;26.80;61.90
3466;DHT22;1747;48.884;9.160;2023-06-14T11:13:51;27.00;61.50
3466;DHT22;1747;48.884;9.160;2023-06-14T11:16:18;27.00;58.80
3466;DHT22;1747;48.884;9.160;2023-06-14T11:18:47;27.10;59.00
3466;DHT22;1747;48.884;9.160;2023-06-14T11:21:16;27.10;61.20
3466;DHT22;1747;48.884;9.160;2023-06-14T11:23:49;27.00;58.40
3466;DHT22;1747;48.884;9.160;2023-06-14T11:26:16;27.00;57.90
3466;DHT22;1747;48.884;9.160;2023-06-14T11:28:55;26.90;59.20
3466;DHT22;1747;48.884;9.160;2023-06-14T11:31:22;26.70;58.10
3466;DHT22;1747;48.884;9.160;2023-06-14T11:33:51;26.80;58.50
3466;DHT22;1747;48.884;9.160;2023-06-14T11:36:26;26.80;57.10
3466;DHT22;1747;48.884;9.160;2023-06-14T11:39:07;26.90;58.10
3466;DHT22;1747;48.884;9.160;2023-06-14T11:41:38;27.10;57.60
3466;DHT22;1747;48.884;9.160;2023-06-14T11:44:05;27.20;56.90
3466;DHT22;1747;48.884;9.160;2023-06-14T11:46:32;27.50;57.10
3466;DHT22;1747;48.884;9.160;2023-06-14T11:49:01;27.80;57.90
3466;DHT22;1747;48.884;9.160;2023-06-14T11:51:28;28.10;57.30
3466;DHT22;1747;48.884;9.160;2023-06-14T11:53:56;28.30;56.70
3466;DHT22;1747;48.884;9.160;2023-06-14T11:56:23;28.70;56.30
3466;DHT22;1747;48.884;9.160;2023-06-14T11:58:51;29.20;55.30
3466;DHT22;1747;48.884;9.160;2023-06-14T12:01:21;29.70;53.50
3466;DHT22;1747;48.884;9.160;2023-06-14T12:03:49;30.10;55.40
3466;DHT22;1747;48.884;9.160;2023-06-14T12:06:26;30.70;53.00
3466;DHT22;1747;48.884;9.160;2023-06-14T12:08:56;31.20;52.50
3466;DHT22;1747;48.884;9.160;2023-06-14T12:11:23;31.60;51.90
3466;DHT22;1747;48.884;9.160;2023-06-14T12:13:50;32.00;49.60
3466;DHT22;1747;48.884;9.160;2023-06-14T12:16:16;32.30;50.80
3466;DHT22;1747;48.884;9.160;2023-06-14T12:18:43;32.30;50.00
3466;DHT22;1747;48.884;9.160;2023-06-14T12:21:11;32.50;50.00
3466;DHT22;1747;48.884;9.160;2023-06-14T12:23:46;32.80;49.50
3466;DHT22;1747;48.884;9.160;2023-06-14T12:26:14;32.90;48.60
3466;DHT22;1747;48.884;9.160;2023-06-14T12:28:51;32.90;49.00
3466;DHT22;1747;48.884;9.160;2023-06-14T12:31:18;33.10;49.30
3466;DHT22;1747;48.884;9.160;2023-06-14T12:33:46;33.20;47.60
3466;DHT22;1747;48.884;9.160;2023-06-14T12:36:14;33.00;48.30
3466;DHT22;1747;48.884;9.160;2023-06-14T12:38:41;32.50;48.80
3466;DHT22;1747;48.884;9.160;2023-06-14T12:41:09;32.30;49.00
3466;DHT22;1747;48.884;9.160;2023-06-14T12:43:36;31.90;49.40
3466;DHT22;1747;48.884;9.160;2023-06-14T12:46:03;31.70;49.50
3466;DHT22;1747;48.884;9.160;2023-06-14T12:48:30;31.30;49.20
3466;DHT22;1747;48.884;9.160;2023-06-14T12:50:57;31.40;49.30
3466;DHT22;1747;48.884;9.160;2023-06-14T12:53:24;31.80;50.60
3466;DHT22;1747;48.884;9.160;2023-06-14T12:55:50;32.20;49.60
3466;DHT22;1747;48.884;9.160;2023-06-14T12:58:18;32.60;48.20
3466;DHT22;1747;48.884;9.160;2023-06-14T13:00:46;33.30;48.40
3466;DHT22;1747;48.884;9.160;2023-06-14T13:03:12;33.80;47.60
3466;DHT22;1747;48.884;9.160;2023-06-14T13:05:39;34.30;45.70
3466;DHT22;1747;48.884;9.160;2023-06-14T13:08:07;34.20;45.70
3466;DHT22;1747;48.884;9.160;2023-06-14T13:10:34;34.60;46.40
3466;DHT22;1747;48.884;9.160;2023-06-14T13:13:01;34.90;46.80
3466;DHT22;1747;48.884;9.160;2023-06-14T13:15:29;34.70;46.40
3466;DHT22;1747;48.884;9.160;2023-06-14T13:17:56;34.10;45.70
3466;DHT22;1747;48.884;9.160;2023-06-14T13:20:23;33.80;46.50
3466;DHT22;1747;48.884;9.160;2023-06-14T13:22:50;33.70;46.40
3466;DHT22;1747;48.884;9.160;2023-06-14T13:25:17;34.00;47.50
3466;DHT22;1747;48.884;9.160;2023-06-14T13:27:44;34.50;45.40
3466;DHT22;1747;48.884;9.160;2023-06-14T13:30:12;35.00;45.70
3466;DHT22;1747;48.884;9.160;2023-06-14T13:32:40;35.50;45.80
3466;DHT22;1747;48.884;9.160;2023-06-14T13:35:07;35.50;46.30
3466;DHT22;1747;48.884;9.160;2023-06-14T13:37:33;35.60;46.00
3466;DHT22;1747;48.884;9.160;2023-06-14T13:40:00;36.00;45.10
3466;DHT22;1747;48.884;9.160;2023-06-14T13:42:28;35.90;45.30
3466;DHT22;1747;48.884;9.160;2023-06-14T13:44:56;35.70;45.80
3466;DHT22;1747;48.884;9.160;2023-06-14T13:47:23;35.50;44.20
3466;DHT22;1747;48.884;9.160;2023-06-14T13:49:51;35.70;44.50
3466;DHT22;1747;48.884;9.160;2023-06-14T13:52:18;36.10;45.90
3466;DHT22;1747;48.884;9.160;2023-06-14T13:54:45;36.50;44.60
3466;DHT22;1747;48.884;9.160;2023-06-14T13:57:12;36.70;43.80
3466;DHT22;1747;48.884;9.160;2023-06-14T13:59:39;36.90;42.70
3466;DHT22;1747;48.884;9.160;2023-06-14T14:02:06;37.00;42.60
3466;DHT22;1747;48.884;9.160;2023-06-14T14:04:33;37.00;43.50
3466;DHT22;1747;48.884;9.160;2023-06-14T14:07:02;37.70;44.60
3466;DHT22;1747;48.884;9.160;2023-06-14T14:09:30;37.80;42.30
3466;DHT22;1747;48.884;9.160;2023-06-14T14:11:57;37.90;42.10
3466;DHT22;1747;48.884;9.160;2023-06-14T14:14:24;38.40;43.40
3466;DHT22;1747;48.884;9.160;2023-06-14T14:16:51;38.40;41.80
3466;DHT22;1747;48.884;9.160;2023-06-14T14:19:18;38.60;41.40
3466;DHT22;1747;48.884;9.160;2023-06-14T14:21:45;38.50;41.90
3466;DHT22;1747;48.884;9.160;2023-06-14T14:24:14;38.80;41.20
3466;DHT22;1747;48.884;9.160;2023-06-14T14:26:41;38.60;40.80
3466;DHT22;1747;48.884;9.160;2023-06-14T14:29:08;38.60;41.00
3466;DHT22;1747;48.884;9.160;2023-06-14T14:31:37;38.30;40.90
3466;DHT22;1747;48.884;9.160;2023-06-14T14:34:04;38.40;42.40
3466;DHT22;1747;48.884;9.160;2023-06-14T14:36:31;38.80;40.70
3466;DHT22;1747;48.884;9.160;2023-06-14T14:38:59;38.80;42.20
3466;DHT22;1747;48.884;9.160;2023-06-14T14:41:27;39.10;40.50
3466;DHT22;1747;48.884;9.160;2023-06-14T14:43:57;39.20;40.30
3466;DHT22;1747;48.884;9.160;2023-06-14T14:46:25;39.10;39.90
3466;DHT22;1747;48.884;9.160;2023-06-14T14:48:54;39.20;40.40
3466;DHT22;1747;48.884;9.160;2023-06-14T14:51:21;39.90;41.50
3466;DHT22;1747;48.884;9.160;2023-06-14T14:53:48;40.10;39.80
3466;DHT22;1747;48.884;9.160;2023-06-14T14:56:14;40.10;38.80
3466;DHT22;1747;48.884;9.160;2023-06-14T14:58:43;40.10;39.40
3466;DHT22;1747;48.884;9.160;2023-06-14T15:01:11;40.00;40.10
3466;DHT22;1747;48.884;9.160;2023-06-14T15:03:37;40.20;39.50
3466;DHT22;1747;48.884;9.160;2023-06-14T15:06:05;40.10;38.70
3466;DHT22;1747;48.884;9.160;2023-06-14T15:08:32;40.30;42.00
3466;DHT22;1747;48.884;9.160;2023-06-14T15:10:58;40.30;39.00
3466;DHT22;1747;48.884;9.160;2023-06-14T15:13:26;39.80;40.00
3466;DHT22;1747;48.884;9.160;2023-06-14T15:15:55;39.80;39.30
3466;DHT22;1747;48.884;9.160;2023-06-14T15:18:21;39.80;39.70
3466;DHT22;1747;48.884;9.160;2023-06-14T15:20:48;39.30;39.30
3466;DHT22;1747;48.884;9.160;2023-06-14T15:23:16;38.90;39.30
3466;DHT22;1747;48.884;9.160;2023-06-14T15:25:45;38.00;39.70
3466;DHT22;1747;48.884;9.160;2023-06-14T15:28:13;37.20;40.00
3466;DHT22;1747;48.884;9.160;2023-06-14T15:30:40;36.70;41.20
3466;DHT22;1747;48.884;9.160;2023-06-14T15:33:09;36.10;40.50
3466;DHT22;1747;48.884;9.160;2023-06-14T15:35:36;35.70;41.60
3466;DHT22;1747;48.884;9.160;2023-06-14T15:38:03;35.70;41.60
3466;DHT22;1747;48.884;9.160;2023-06-14T15:40:31;35.80;42.30
3466;DHT22;1747;48.884;9.160;2023-06-14T15:43:00;36.10;41.80
3466;DHT22;1747;48.884;9.160;2023-06-14T15:45:27;36.50;40.90
3466;DHT22;1747;48.884;9.160;2023-06-14T15:47:54;36.20;40.80
3466;DHT22;1747;48.884;9.160;2023-06-14T15:50:22;35.40;41.30
3466;DHT22;1747;48.884;9.160;2023-06-14T15:52:49;34.80;42.00
3466;DHT22;1747;48.884;9.160;2023-06-14T15:55:16;34.10;42.40
3466;DHT22;1747;48.884;9.160;2023-06-14T15:57:43;33.50;43.30
3466;DHT22;1747;48.884;9.160;2023-06-14T16:00:11;32.90;43.30
3466;DHT22;1747;48.884;9.160;2023-06-14T16:02:38;32.50;43.60
3466;DHT22;1747;48.884;9.160;2023-06-14T16:05:05;32.10;43.60
3466;DHT22;1747;48.884;9.160;2023-06-14T16:07:33;31.80;43.80
3466;DHT22;1747;48.884;9.160;2023-06-14T16:10:00;31.60;44.40